Time;durP1;ratioP1;P1;durP2;ratioP2;P2;SDS_P1;SDS_P2;PMS_P1;PMS_P2;Temp;Humidity;BMP_temperature;BMP_pressure;BME280_temperature;BME280_humidity;BME280_pressure;Samples;Min_cycle;Max_cycle;Signal;HPM_P1;HPM_P2
2022/02/06 00:00:52;;;;;;;5.95;1.60;;;;;;;-145.06;0.00;60892.56;4825875;28;20026;-87
2022/02/06 00:03:31;;;;;;;2.95;1.20;;;;;;;-145.06;0.00;60892.56;4843625;28;20038;-87
2022/02/06 00:06:11;;;;;;;3.95;1.40;;;;;;;-145.06;0.00;60892.56;4834713;28;20425;-88
2022/02/06 00:08:50;;;;;;;3.75;1.60;;;;;;;-145.06;0.00;60892.56;4833353;28;20029;-88
2022/02/06 00:11:29;;;;;;;2.23;1.30;;;;;;;-145.06;0.00;60892.56;4837042;28;20053;-87
2022/02/06 00:14:08;;;;;;;3.87;1.53;;;;;;;-145.06;0.00;60892.56;4838798;28;20287;-87
2022/02/06 00:16:47;;;;;;;3.42;1.27;;;;;;;-145.06;0.00;60892.56;4836894;28;20309;-87
2022/02/06 00:19:26;;;;;;;4.95;1.52;;;;;;;-145.06;0.00;60892.56;4842399;28;20636;-88
2022/02/06 00:22:08;;;;;;;5.68;1.98;;;;;;;-145.06;0.00;60892.56;4839169;28;20042;-87
2022/02/06 00:24:56;;;;;;;5.55;1.33;;;;;;;-145.06;0.00;60892.56;4827909;28;20113;-87
2022/02/06 00:30:34;;;;;;;4.43;1.33;;;;;;;-145.06;0.00;60892.56;4839554;28;20045;-87
2022/02/06 00:33:35;;;;;;;5.43;1.40;;;;;;;-145.06;0.00;60892.56;4858287;28;20476;-88
2022/02/06 00:39:11;;;;;;;4.07;1.42;;;;;;;-145.06;0.00;60892.56;4829738;28;20071;-88
2022/02/06 00:41:50;;;;;;;6.45;1.60;;;;;;;-145.06;0.00;60892.56;4851460;28;20065;-88
2022/02/06 00:44:29;;;;;;;3.58;1.15;;;;;;;-145.06;0.00;60892.56;4848417;28;20038;-89
2022/02/06 00:47:08;;;;;;;4.82;1.60;;;;;;;-145.06;0.00;60892.56;4847364;28;20034;-88
2022/02/06 00:49:48;;;;;;;4.40;1.70;;;;;;;-145.06;0.00;60892.56;4828963;28;20065;-88
2022/02/06 00:52:36;;;;;;;4.30;1.70;;;;;;;-145.06;0.00;60892.56;4850868;28;20064;-88
2022/02/06 00:55:15;;;;;;;4.00;1.50;;;;;;;-145.06;0.00;60892.56;4838305;28;20022;-87
2022/02/06 00:57:54;;;;;;;5.40;1.60;;;;;;;-145.06;0.00;60892.56;4837950;28;20029;-87
2022/02/06 01:00:32;;;;;;;6.28;2.05;;;;;;;-145.06;0.00;60892.56;4851737;28;20572;-90
2022/02/06 01:03:11;;;;;;;4.20;1.63;;;;;;;-145.06;0.00;60892.56;4835229;28;20042;-88
2022/02/06 01:05:50;;;;;;;6.18;1.50;;;;;;;-145.06;0.00;60892.56;4832536;28;20041;-88
2022/02/06 01:08:29;;;;;;;4.50;1.42;;;;;;;-145.06;0.00;60892.56;4837016;28;20038;-90
2022/02/06 01:11:10;;;;;;;4.47;1.60;;;;;;;-145.06;0.00;60892.56;4854132;28;20037;-88
2022/02/06 01:16:36;;;;;;;4.47;1.70;;;;;;;-145.06;0.00;60892.56;4836237;28;20034;-89
2022/02/06 01:19:22;;;;;;;6.07;1.55;;;;;;;-145.06;0.00;60892.56;4832503;28;20483;-87
2022/02/06 01:22:06;;;;;;;5.20;1.48;;;;;;;-145.06;0.00;60892.56;4833140;28;20033;-89
2022/02/06 01:24:56;;;;;;;3.35;1.40;;;;;;;-145.06;0.00;60892.56;4837910;28;20025;-89
2022/02/06 01:27:42;;;;;;;6.88;1.50;;;;;;;-145.06;0.00;60892.56;4836637;28;20033;-88
2022/02/06 01:30:31;;;;;;;3.60;1.20;;;;;;;-145.06;0.00;60892.56;4842599;28;20030;-89
2022/02/06 01:33:18;;;;;;;5.32;1.70;;;;;;;-145.06;0.00;60892.56;4840759;28;20037;-90
2022/02/06 01:41:28;;;;;;;4.95;1.83;;;;;;;-145.06;0.00;60892.56;4834482;28;20476;-88
2022/02/06 01:44:26;;;;;;;7.47;1.70;;;;;;;-145.06;0.00;60892.56;4846814;28;20092;-89
2022/02/06 02:16:25;;;;;;;4.32;1.30;;;;;;;-145.06;0.00;60892.56;4832743;28;20385;-89
2022/02/06 02:22:18;;;;;;;4.93;1.92;;;;;;;-145.06;0.00;60892.56;4835857;28;20029;-89
2022/02/06 02:45:51;;;;;;;5.65;1.70;;;;;;;-145.06;0.00;60892.56;4833832;28;20034;-88
2022/02/06 02:48:01;;;;;;;4.45;1.58;;;;;;;-145.06;0.00;60892.56;4832748;28;20042;-89
2022/02/06 02:50:44;;;;;;;6.22;2.00;;;;;;;-145.06;0.00;60892.56;4837569;28;20057;-89
2022/02/06 02:53:34;;;;;;;6.82;1.80;;;;;;;-145.06;0.00;60892.56;4833660;28;20045;-88
2022/02/06 03:01:59;;;;;;;5.57;2.05;;;;;;;-145.06;0.00;60892.56;4838036;28;20365;-88
2022/02/06 03:04:37;;;;;;;7.53;2.08;;;;;;;174.51;0.00;60892.56;4839546;28;20034;-88
2022/02/06 03:07:16;;;;;;;4.23;1.53;;;;;;;-145.06;0.00;60892.56;4832243;28;20037;-88
2022/02/06 03:09:55;;;;;;;4.60;1.80;;;;;;;-145.06;0.00;60892.56;4855250;28;20285;-88
2022/02/06 03:12:35;;;;;;;5.50;2.00;;;;;;;-145.06;0.00;60892.56;4850989;28;20315;-87
2022/02/06 03:15:31;;;;;;;3.83;1.35;;;;;;;-145.06;0.00;60892.56;4833721;28;20034;-86
2022/02/06 03:18:21;;;;;;;4.85;1.70;;;;;;;-145.06;0.00;60892.56;4831055;28;20030;-88
2022/02/06 03:21:01;;;;;;;5.75;1.67;;;;;;;-145.06;0.00;60892.56;4842102;28;20364;-87
2022/02/06 03:23:48;;;;;;;4.93;1.60;;;;;;;7.75;0.00;60892.56;4848710;28;20565;-87
2022/02/06 03:26:27;;;;;;;6.05;1.85;;;;;;;7.67;0.00;60892.56;4824990;28;20037;-87
2022/02/06 03:29:05;;;;;;;4.13;1.63;;;;;;;-145.06;0.00;60892.56;4842047;28;20021;-87
2022/02/06 03:31:45;;;;;;;7.45;1.98;;;;;;;-145.06;0.00;60892.56;4843513;28;20033;-88
2022/02/06 03:34:24;;;;;;;4.88;1.73;;;;;;;-145.06;0.00;60892.56;4848417;28;20128;-88
2022/02/06 03:37:03;;;;;;;7.27;2.13;;;;;;;8.08;0.00;60892.56;4844749;28;20029;-87
2022/02/06 03:39:49;;;;;;;5.13;1.58;;;;;;;-145.06;0.00;60892.56;4837480;28;20472;-88
2022/02/06 03:42:34;;;;;;;6.47;1.88;;;;;;;-145.06;0.00;60892.56;4836400;28;20073;-88
2022/02/06 03:45:19;;;;;;;7.22;1.80;;;;;;;-145.06;0.00;60892.56;4855807;28;20030;-86
2022/02/06 03:48:10;;;;;;;4.10;1.80;;;;;;;-145.06;0.00;60892.56;4835207;28;20050;-87
2022/02/06 03:50:54;;;;;;;4.63;1.67;;;;;;;-145.06;0.00;60892.56;4831234;28;20069;-87
2022/02/06 03:53:33;;;;;;;3.40;1.17;;;;;;;-145.06;0.00;60892.56;4826633;28;20065;-88
2022/02/06 03:56:12;;;;;;;4.95;1.80;;;;;;;-145.06;0.00;60892.56;4858244;28;20076;-85
2022/02/06 03:58:51;;;;;;;4.53;1.70;;;;;;;-145.06;0.00;60892.56;4835473;28;20026;-88
2022/02/06 04:01:30;;;;;;;5.00;1.50;;;;;;;-145.06;0.00;60892.56;4840993;28;20037;-86
2022/02/06 04:04:09;;;;;;;4.78;1.60;;;;;;;-145.06;0.00;60892.56;4838358;28;20034;-87
2022/02/06 04:06:48;;;;;;;4.73;1.40;;;;;;;-145.06;0.00;60892.56;4844692;28;20085;-88
2022/02/06 04:09:33;;;;;;;3.60;1.70;;;;;;;-145.06;0.00;60892.56;4834826;28;20039;-88
2022/02/06 04:12:15;;;;;;;6.82;1.60;;;;;;;-145.06;0.00;60892.56;4835201;28;20373;-87
2022/02/06 04:15:00;;;;;;;7.68;1.42;;;;;;;-145.06;0.00;60892.56;4829217;28;20021;-87
2022/02/06 04:17:47;;;;;;;3.80;1.40;;;;;;;-145.06;0.00;60892.56;4839297;28;20033;-88
2022/02/06 04:20:26;;;;;;;5.97;1.98;;;;;;;-145.06;0.00;60892.56;4839515;28;20034;-87
2022/02/06 04:23:05;;;;;;;4.27;1.47;;;;;;;-145.06;0.00;60892.56;4833698;28;20377;-87
2022/02/06 04:25:44;;;;;;;6.20;1.80;;;;;;;-145.06;0.00;60892.56;4829997;28;20280;-87
2022/02/06 04:28:23;;;;;;;5.78;2.03;;;;;;;-145.06;0.00;60892.56;4839216;28;20037;-85
2022/02/06 04:31:02;;;;;;;3.67;1.25;;;;;;;-145.06;0.00;60892.56;4843627;28;20484;-88
2022/02/06 04:33:41;;;;;;;4.10;1.48;;;;;;;-145.06;0.00;60892.56;4831516;28;20600;-87
2022/02/06 04:36:23;;;;;;;4.30;1.47;;;;;;;-145.06;0.00;60892.56;4838523;28;20045;-88
2022/02/06 04:41:59;;;;;;;3.05;1.10;;;;;;;-145.06;0.00;60892.56;4844326;28;20033;-88
2022/02/06 04:45:24;;;;;;;3.80;1.65;;;;;;;-145.06;0.00;60892.56;4841755;28;20037;-87
2022/02/06 05:28:50;;;;;;;4.55;1.55;;;;;;;-145.06;0.00;60892.56;4841319;28;20029;-87
2022/02/06 05:31:38;;;;;;;3.65;1.20;;;;;;;-145.06;0.00;60892.56;4842453;28;20080;-86
2022/02/06 05:34:18;;;;;;;3.05;1.10;;;;;;;-145.06;0.00;60892.56;4837213;28;20061;-87
2022/02/06 05:36:57;;;;;;;2.30;1.38;;;;;;;-145.06;0.00;60892.56;4837938;28;20442;-86
2022/02/06 05:39:36;;;;;;;1.77;1.03;;;;;;;-145.06;0.00;60892.56;4839845;28;20033;-86
2022/02/06 05:42:17;;;;;;;3.10;1.33;;;;;;;-145.06;0.00;60892.56;4828844;28;20030;-88
2022/02/06 05:44:56;;;;;;;3.53;1.00;;;;;;;-145.06;0.00;60892.56;4848351;28;20034;-87
2022/02/06 05:47:35;;;;;;;1.33;0.70;;;;;;;-145.06;0.00;60892.56;4835780;28;20029;-87
2022/02/06 05:50:15;;;;;;;2.60;1.10;;;;;;;-145.06;0.00;60892.56;4853457;28;20030;-86
2022/02/06 05:52:54;;;;;;;3.67;1.15;;;;;;;-145.06;0.00;60892.56;4854090;28;20037;-87
2022/02/06 05:55:34;;;;;;;3.87;0.97;;;;;;;-145.06;0.00;60892.56;4840717;28;20140;-87
2022/02/06 05:58:12;;;;;;;2.60;1.10;;;;;;;-145.06;0.00;60892.56;4838121;28;20303;-87
2022/02/06 06:00:51;;;;;;;4.63;1.10;;;;;;;-145.06;0.00;60892.56;4852214;28;20610;-88
2022/02/06 06:03:30;;;;;;;3.07;1.23;;;;;;;-145.06;0.00;60892.56;4833036;28;20499;-87
2022/02/06 06:06:09;;;;;;;1.50;0.70;;;;;;;7.76;0.00;60892.56;4826934;28;20273;-86
2022/02/06 06:08:48;;;;;;;2.23;1.00;;;;;;;-145.06;0.00;60892.56;4838719;28;21172;-86
2022/02/06 06:11:27;;;;;;;2.50;1.05;;;;;;;187.52;0.00;60892.56;4840193;28;20268;-86
2022/02/06 06:14:06;;;;;;;1.40;0.83;;;;;;;-145.06;0.00;60892.56;4832766;28;20057;-87
2022/02/06 06:16:45;;;;;;;2.70;0.95;;;;;;;-145.06;0.00;60892.56;4827047;28;20029;-87
2022/02/06 06:19:25;;;;;;;2.92;1.23;;;;;;;-145.06;0.00;60892.56;4846993;28;20022;-88
2022/02/06 06:22:07;;;;;;;2.80;0.80;;;;;;;-145.06;0.00;60892.56;4844451;28;20065;-88
2022/02/06 06:24:52;;;;;;;2.95;1.10;;;;;;;187.52;0.00;60892.56;4834271;28;20029;-87
2022/02/06 06:27:31;;;;;;;2.00;1.10;;;;;;;-145.06;0.00;60892.56;4837647;28;20058;-88
2022/02/06 06:30:10;;;;;;;2.45;1.27;;;;;;;-145.06;0.00;60892.56;4847722;28;20382;-86
2022/02/06 06:32:49;;;;;;;2.55;1.00;;;;;;;-145.06;0.00;60892.56;4834199;28;20034;-88
2022/02/06 06:35:30;;;;;;;3.00;1.40;;;;;;;-145.06;0.00;60892.56;4835104;28;20566;-88
2022/02/06 06:38:09;;;;;;;5.25;1.45;;;;;;;-145.06;0.00;60892.56;4833843;28;20273;-87
2022/02/06 06:40:48;;;;;;;3.60;1.35;;;;;;;-145.06;0.00;60892.56;4835892;28;20496;-87
2022/02/06 06:43:27;;;;;;;3.80;1.30;;;;;;;-145.06;0.00;60892.56;4831640;28;20641;-88
2022/02/06 06:46:06;;;;;;;5.28;1.40;;;;;;;-145.06;0.00;60892.56;4832085;28;20120;-87
2022/02/06 06:48:45;;;;;;;1.83;1.00;;;;;;;7.50;0.00;60892.56;4835712;28;20547;-87
2022/02/06 06:51:24;;;;;;;2.73;1.00;;;;;;;10.68;0.00;60892.56;4842995;28;20364;-88
2022/02/06 06:54:11;;;;;;;3.80;1.00;;;;;;;7.53;0.00;60892.56;4839073;28;20030;-88
2022/02/06 06:57:41;;;;;;;2.55;1.10;;;;;;;-145.06;0.00;60892.56;4841660;28;20484;-88
2022/02/06 07:02:33;;;;;;;3.42;1.17;;;;;;;7.76;0.00;60892.56;4843749;28;20042;-87
2022/02/06 07:05:11;;;;;;;2.60;1.00;;;;;;;-145.06;0.00;60892.56;4829413;28;20377;-88
2022/02/06 07:07:50;;;;;;;5.60;0.95;;;;;;;-145.06;0.00;60892.56;4824088;28;20588;-87
2022/02/06 07:10:29;;;;;;;3.85;0.98;;;;;;;-145.06;0.00;60892.56;4835502;28;20037;-87
2022/02/06 07:13:08;;;;;;;2.03;1.08;;;;;;;-145.06;0.00;60892.56;4832159;28;20046;-88
2022/02/06 07:15:48;;;;;;;3.08;1.05;;;;;;;-145.06;0.00;60892.56;4834468;28;20033;-88
2022/02/06 07:18:27;;;;;;;3.72;0.93;;;;;;;7.58;0.00;60892.56;4831337;28;20026;-88
2022/02/06 07:21:06;;;;;;;1.70;0.97;;;;;;;-145.06;0.00;60892.56;4846312;28;20065;-87
2022/02/06 07:23:45;;;;;;;2.77;0.90;;;;;;;-145.06;0.00;60892.56;4842123;28;20361;-88
2022/02/06 07:26:26;;;;;;;2.10;0.77;;;;;;;-145.06;0.00;60892.56;4834098;28;20033;-88
2022/02/06 07:29:05;;;;;;;2.58;0.90;;;;;;;-145.06;0.00;60892.56;4844012;28;20038;-87
2022/02/06 07:31:46;;;;;;;1.20;0.80;;;;;;;8.08;0.00;60892.56;4833503;28;20041;-87
2022/02/06 07:34:24;;;;;;;1.17;0.70;;;;;;;-145.06;0.00;60892.56;4831368;28;20038;-87
2022/02/06 07:37:04;;;;;;;3.07;0.90;;;;;;;-145.06;0.00;60892.56;4835738;28;20038;-88
2022/02/06 07:39:44;;;;;;;1.48;0.82;;;;;;;21.08;0.00;60892.56;4834336;28;20269;-87
2022/02/06 07:42:23;;;;;;;2.88;0.68;;;;;;;-145.06;0.00;60892.56;4840064;28;20026;-86
2022/02/06 07:45:04;;;;;;;2.13;0.77;;;;;;;7.60;0.00;60892.56;4848673;28;20057;-88
2022/02/06 07:47:45;;;;;;;1.30;0.65;;;;;;;-145.06;0.00;60892.56;4827039;28;20636;-87
2022/02/06 07:50:24;;;;;;;2.67;1.38;;;;;;;-145.06;0.00;60892.56;4837208;28;20029;-88
2022/02/06 07:53:05;;;;;;;3.57;1.60;;;;;;;-145.06;0.00;60892.56;4834341;28;20030;-88
2022/02/06 07:55:44;;;;;;;1.55;0.80;;;;;;;-145.06;0.00;60892.56;4836720;28;20273;-88
2022/02/06 07:58:23;;;;;;;1.58;0.70;;;;;;;-145.06;0.00;60892.56;4838734;28;20037;-88
2022/02/06 08:01:02;;;;;;;1.63;0.80;;;;;;;-145.06;0.00;60892.56;4830515;28;20124;-88
2022/02/06 08:03:41;;;;;;;0.80;0.50;;;;;;;-145.06;0.00;60892.56;4853179;28;20494;-88
2022/02/06 08:06:20;;;;;;;1.05;0.60;;;;;;;-145.06;0.00;60892.56;4834616;28;20101;-88
2022/02/06 08:08:59;;;;;;;0.77;0.60;;;;;;;-145.06;0.00;60892.56;4847462;28;20030;-89
2022/02/06 08:11:44;;;;;;;1.10;0.45;;;;;;;-145.06;0.00;60892.56;4843748;28;20034;-87
2022/02/06 08:17:33;;;;;;;1.40;0.80;;;;;;;7.76;0.00;60892.56;4845778;28;20033;-87
2022/02/06 08:20:14;;;;;;;0.73;0.70;;;;;;;-145.06;0.00;60892.56;4837057;28;20026;-87
2022/02/06 08:23:17;;;;;;;0.77;0.60;;;;;;;-145.06;0.00;60892.56;4829637;28;20030;-87
2022/02/06 08:25:57;;;;;;;0.90;0.52;;;;;;;-145.06;0.00;60892.56;4854178;28;20025;-88
2022/02/06 08:28:37;;;;;;;0.85;0.50;;;;;;;-145.06;0.00;60892.56;4838487;28;20034;-87
2022/02/06 08:31:16;;;;;;;1.58;0.70;;;;;;;-145.06;0.00;60892.56;4834953;28;20061;-87
2022/02/06 08:33:55;;;;;;;0.77;0.50;;;;;;;-145.06;0.00;60892.56;4843614;28;20427;-87
2022/02/06 08:36:34;;;;;;;0.43;0.40;;;;;;;-145.06;0.00;60892.56;4836918;28;20042;-87
2022/02/06 08:39:13;;;;;;;0.30;0.30;;;;;;;-145.06;0.00;60892.56;4842187;28;20277;-87
2022/02/06 08:41:52;;;;;;;0.73;0.50;;;;;;;-145.06;0.00;60892.56;4837435;28;20033;-87
2022/02/06 08:44:31;;;;;;;0.60;0.60;;;;;;;-145.06;0.00;60892.56;4837543;28;20058;-88
2022/02/06 08:47:12;;;;;;;0.70;0.52;;;;;;;-145.06;0.00;60892.56;4837716;28;20495;-87
2022/02/06 08:49:52;;;;;;;0.40;0.30;;;;;;;-145.06;0.00;60892.56;4835436;28;20038;-88
2022/02/06 08:52:31;;;;;;;0.63;0.40;;;;;;;-145.06;0.00;60892.56;4838580;28;20034;-88
2022/02/06 08:55:12;;;;;;;0.80;0.43;;;;;;;-145.06;0.00;60892.56;4836072;28;20034;-86
2022/02/06 08:57:51;;;;;;;0.77;0.20;;;;;;;-145.06;0.00;60892.56;4836628;28;20129;-87
2022/02/06 09:00:30;;;;;;;0.60;0.40;;;;;;;-145.06;0.00;60892.56;4840438;28;20038;-87
2022/02/06 09:03:09;;;;;;;1.03;0.50;;;;;;;7.64;0.00;60892.56;4837542;28;20041;-85
2022/02/06 09:05:48;;;;;;;0.57;0.50;;;;;;;-145.06;0.00;60892.56;4837936;28;20025;-87
2022/02/06 09:08:27;;;;;;;1.00;0.60;;;;;;;-145.06;0.00;60892.56;4844104;28;20029;-87
2022/02/06 09:11:06;;;;;;;0.70;0.60;;;;;;;-145.06;0.00;60892.56;4837613;28;20034;-87
2022/02/06 09:13:45;;;;;;;0.40;0.40;;;;;;;-145.06;0.00;60892.56;4838052;28;20029;-87
2022/02/06 09:16:27;;;;;;;0.40;0.40;;;;;;;-145.06;0.00;60892.56;4851022;28;20025;-87
2022/02/06 09:19:07;;;;;;;1.05;0.47;;;;;;;7.76;0.00;60892.56;4851907;28;20104;-87
2022/02/06 09:21:46;;;;;;;0.77;0.50;;;;;;;7.64;0.00;60892.56;4840920;28;20037;-87
2022/02/06 09:24:25;;;;;;;0.40;0.40;;;;;;;-145.06;0.00;60892.56;4845972;28;20037;-87
2022/02/06 09:27:05;;;;;;;0.60;0.50;;;;;;;-145.06;0.00;60892.56;4841254;28;20037;-85
2022/02/06 09:29:44;;;;;;;0.40;0.40;;;;;;;-145.06;0.00;60892.56;4843879;28;20058;-87
2022/02/06 09:37:43;;;;;;;0.38;0.28;;;;;;;-145.06;0.00;60892.56;4837912;28;20041;-87
2022/02/06 09:40:26;;;;;;;0.50;0.40;;;;;;;-145.06;0.00;60892.56;4837046;28;20025;-88
2022/02/06 09:43:05;;;;;;;0.73;0.50;;;;;;;-145.06;0.00;60892.56;4835750;28;20038;-87
2022/02/06 09:45:46;;;;;;;;;;;;;;;-145.06;0.00;60892.56;4842672;28;20038;-88
2022/02/06 09:48:28;;;;;;;0.68;0.40;;;;;;;-145.06;0.00;60892.56;4839487;28;20255;-87
2022/02/06 09:51:09;;;;;;;0.40;0.40;;;;;;;-145.06;0.00;60892.56;4845092;28;20037;-88
2022/02/06 09:53:48;;;;;;;0.80;0.43;;;;;;;7.68;0.00;60892.56;4833488;28;20118;-87
2022/02/06 09:56:30;;;;;;;0.77;0.40;;;;;;;-145.06;0.00;60892.56;4839486;28;20033;-87
2022/02/06 09:59:17;;;;;;;0.30;0.20;;;;;;;7.76;0.00;60892.56;4843663;28;20289;-87
2022/02/06 10:01:58;;;;;;;0.30;0.30;;;;;;;-145.06;0.00;60892.56;4833366;28;20037;-88
2022/02/06 10:04:40;;;;;;;0.30;0.30;;;;;;;7.68;0.00;60892.56;4835013;28;20532;-87
2022/02/06 10:07:29;;;;;;;0.30;0.30;;;;;;;-145.06;0.00;60892.56;4837382;28;20034;-87
2022/02/06 10:10:10;;;;;;;0.73;0.30;;;;;;;-145.06;0.00;60892.56;4838683;28;20377;-87
2022/02/06 10:12:53;;;;;;;0.77;0.50;;;;;;;-145.06;0.00;60892.56;4831497;28;20053;-87
2022/02/06 10:15:32;;;;;;;0.73;0.50;;;;;;;-145.06;0.00;60892.56;4850391;28;20034;-87
2022/02/06 10:18:11;;;;;;;0.30;0.30;;;;;;;-145.06;0.00;60892.56;4844570;28;20104;-87
2022/02/06 10:20:53;;;;;;;0.57;0.52;;;;;;;-145.06;0.00;60892.56;4840075;28;20025;-88
2022/02/06 10:23:38;;;;;;;0.60;0.50;;;;;;;-145.06;0.00;60892.56;4835599;28;20045;-88
2022/02/06 10:26:33;;;;;;;0.65;0.40;;;;;;;-145.06;0.00;60892.56;4853581;28;20112;-88
2022/02/06 10:32:03;;;;;;;0.60;0.40;;;;;;;-145.06;0.00;60892.56;4823753;28;20121;-87
2022/02/06 10:34:43;;;;;;;1.05;0.30;;;;;;;-145.06;0.00;60892.56;4829809;28;20041;-87
2022/02/06 10:37:22;;;;;;;;;;;;;;;-145.06;0.00;60892.56;4830540;28;20029;-87
2022/02/06 10:40:07;;;;;;;0.45;0.40;;;;;;;-145.06;0.00;60892.56;4839906;28;20020;-88
2022/02/06 10:42:45;;;;;;;0.47;0.30;;;;;;;-145.06;0.00;60892.56;4840790;28;20033;-87
2022/02/06 10:45:25;;;;;;;1.50;0.52;;;;;;;-145.06;0.00;60892.56;4838822;28;20026;-88
2022/02/06 10:48:19;;;;;;;0.40;0.40;;;;;;;-145.06;0.00;60892.56;4824996;28;20369;-88
2022/02/06 10:50:59;;;;;;;0.50;0.47;;;;;;;-145.06;0.00;60892.56;4824221;28;20034;-88
2022/02/06 10:53:56;;;;;;;;;;;;;;;-145.06;0.00;60892.56;4828429;28;20467;-87
2022/02/06 10:56:40;;;;;;;0.90;0.43;;;;;;;-145.06;0.00;60892.56;4827317;28;20386;-88
2022/02/06 10:59:18;;;;;;;0.60;0.40;;;;;;;-145.06;0.00;60892.56;4828938;28;20053;-88
2022/02/06 11:01:58;;;;;;;1.63;0.50;;;;;;;-145.06;0.00;60892.56;4825659;28;20037;-87
2022/02/06 11:04:44;;;;;;;0.57;0.40;;;;;;;-145.06;0.00;60892.56;4839207;28;20728;-86
2022/02/06 11:07:23;;;;;;;0.63;0.45;;;;;;;-145.06;0.00;60892.56;4831342;28;20514;-87
2022/02/06 11:10:06;;;;;;;0.30;0.30;;;;;;;-145.06;0.00;60892.56;4831082;28;20034;-87
2022/02/06 11:12:59;;;;;;;0.38;0.38;;;;;;;-145.06;0.00;60892.56;4824548;28;20640;-88
2022/02/06 11:15:45;;;;;;;1.40;0.60;;;;;;;-145.06;0.00;60892.56;4824458;28;20507;-89
2022/02/06 11:18:33;;;;;;;1.05;0.50;;;;;;;-145.06;0.00;60892.56;4829635;28;20116;-88
2022/02/06 11:21:16;;;;;;;0.50;0.47;;;;;;;-145.06;0.00;60892.56;4840565;28;20030;-87
2022/02/06 11:23:55;;;;;;;0.80;0.50;;;;;;;-145.06;0.00;60892.56;4827777;28;20041;-88
2022/02/06 11:26:34;;;;;;;0.73;0.30;;;;;;;-145.06;0.00;60892.56;4826320;28;20038;-88
2022/02/06 11:29:14;;;;;;;0.30;0.30;;;;;;;-145.06;0.00;60892.56;4826983;28;20034;-89
2022/02/06 11:31:54;;;;;;;;;;;;;;;-145.06;0.00;60892.56;4830060;28;20038;-88
2022/02/06 11:34:33;;;;;;;0.30;0.30;;;;;;;-145.06;0.00;60892.56;4826313;28;20431;-89
2022/02/06 11:46:32;;;;;;;0.60;0.40;;;;;;;-145.06;0.00;60892.56;4830984;28;20034;-89
2022/02/06 11:49:18;;;;;;;0.75;0.40;;;;;;;7.56;0.00;60892.56;4831156;28;20030;-88
2022/02/06 11:51:59;;;;;;;0.50;0.30;;;;;;;7.76;0.00;60892.56;4834126;28;20034;-88
2022/02/06 11:54:49;;;;;;;0.30;0.30;;;;;;;21.08;0.00;60892.56;4829851;28;20065;-90
2022/02/06 11:57:28;;;;;;;0.57;0.30;;;;;;;-145.06;0.00;60892.56;4834662;28;20045;-88
2022/02/06 12:00:07;;;;;;;0.30;0.30;;;;;;;-145.06;0.00;60892.56;4838159;28;20029;-88
2022/02/06 12:02:49;;;;;;;0.32;0.30;;;;;;;-145.06;0.00;60892.56;4839531;28;20041;-88
2022/02/06 12:05:28;;;;;;;0.30;0.30;;;;;;;-145.06;0.00;60892.56;4827860;28;20609;-88
2022/02/06 12:08:10;;;;;;;0.37;0.37;;;;;;;-145.06;0.00;60892.56;4834891;28;20468;-88
2022/02/06 12:10:58;;;;;;;0.20;0.20;;;;;;;-145.06;0.00;60892.56;4836642;28;20972;-88
2022/02/06 12:13:38;;;;;;;0.50;0.50;;;;;;;-145.06;0.00;60892.56;4833872;28;20038;-88
2022/02/06 12:16:25;;;;;;;;;;;;;;;8.08;0.00;60892.56;4834788;28;20776;-88
2022/02/06 12:19:24;;;;;;;1.55;0.50;;;;;;;8.08;0.00;60892.56;4847652;28;20358;-87
2022/02/06 12:22:43;;;;;;;0.40;0.40;;;;;;;8.08;0.00;60892.56;4837013;28;20604;-87
2022/02/06 12:25:37;;;;;;;0.60;0.50;;;;;;;7.94;0.00;60892.56;4782536;28;20035;-87
2022/02/06 12:28:21;;;;;;;0.95;0.45;;;;;;;8.08;0.00;60892.56;4833784;28;20037;-88
2022/02/06 12:31:13;;;;;;;0.73;0.50;;;;;;;-145.06;0.00;60892.56;4834095;28;20555;-88
2022/02/06 12:34:09;;;;;;;0.40;0.40;;;;;;;-145.06;0.00;60892.56;4830538;28;20034;-88
2022/02/06 12:37:08;;;;;;;0.93;0.50;;;;;;;-145.06;0.00;60892.56;4832159;28;20034;-89
2022/02/06 12:39:47;;;;;;;0.52;0.40;;;;;;;-145.06;0.00;60892.56;4838391;28;20042;-89
2022/02/06 12:42:28;;;;;;;1.43;0.70;;;;;;;8.73;0.00;60892.56;4848221;28;20021;-89
2022/02/06 12:45:11;;;;;;;1.33;0.60;;;;;;;-145.06;0.00;60892.56;4829849;28;20590;-88
2022/02/06 12:47:54;;;;;;;0.88;0.50;;;;;;;21.08;0.00;60892.56;4834984;28;20030;-88
2022/02/06 12:50:36;;;;;;;0.40;0.40;;;;;;;-145.06;0.00;60892.56;4835230;28;20140;-88
2022/02/06 12:53:17;;;;;;;0.70;0.50;;;;;;;-145.06;0.00;60892.56;4825263;28;20038;-89
2022/02/06 12:55:56;;;;;;;0.55;0.47;;;;;;;-145.06;0.00;60892.56;4836333;28;20037;-88
2022/02/06 12:58:35;;;;;;;1.33;0.45;;;;;;;-145.06;0.00;60892.56;4830561;28;20042;-90
2022/02/06 13:01:14;;;;;;;1.00;0.67;;;;;;;8.89;0.00;60892.56;4835326;28;20030;-88
2022/02/06 13:03:54;;;;;;;2.03;0.40;;;;;;;-145.06;0.00;60892.56;4831341;28;21191;-89
2022/02/06 13:06:34;;;;;;;;;;;;;;;-145.06;0.00;60892.56;4833454;28;20257;-88
2022/02/06 13:09:25;;;;;;;0.30;0.30;;;;;;;9.38;0.00;60892.56;4830907;28;21026;-88
2022/02/06 13:18:07;;;;;;;0.45;0.40;;;;;;;9.00;0.00;60892.56;4832128;28;20034;-87
2022/02/06 13:21:03;;;;;;;1.90;0.60;;;;;;;-145.06;0.00;60892.56;4830574;28;20026;-86
2022/02/06 13:24:06;;;;;;;1.08;0.43;;;;;;;-145.06;0.00;60892.56;4826924;28;20437;-87
2022/02/06 13:27:03;;;;;;;1.00;0.40;;;;;;;-145.06;0.00;60892.56;4832456;28;20029;-86
2022/02/06 13:30:27;;;;;;;0.60;0.50;;;;;;;-145.06;0.00;60892.56;4828251;28;20034;-88
2022/02/06 13:33:05;;;;;;;1.48;0.50;;;;;;;-145.06;0.00;60892.56;4830727;28;20644;-87
2022/02/06 13:35:56;;;;;;;0.98;0.40;;;;;;;-145.06;0.00;60892.56;4834203;28;20452;-89
2022/02/06 13:38:35;;;;;;;0.85;0.40;;;;;;;-145.06;0.00;60892.56;4832401;28;20029;-88
2022/02/06 13:41:20;;;;;;;0.90;0.50;;;;;;;-145.06;0.00;60892.56;4829890;28;20030;-88
2022/02/06 13:44:01;;;;;;;2.55;0.47;;;;;;;-145.06;0.00;60892.56;4827006;28;20041;-87
2022/02/06 13:46:42;;;;;;;1.95;0.57;;;;;;;-145.06;0.00;60892.56;4844635;28;20038;-87
2022/02/06 13:49:39;;;;;;;0.82;0.35;;;;;;;-145.06;0.00;60892.56;4837347;28;20038;-88
2022/02/06 13:52:18;;;;;;;0.60;0.40;;;;;;;-145.06;0.00;60892.56;4844691;28;20491;-88
2022/02/06 13:55:04;;;;;;;1.53;0.50;;;;;;;-145.06;0.00;60892.56;4828024;28;20038;-88
2022/02/06 13:57:45;;;;;;;0.68;0.57;;;;;;;-145.06;0.00;60892.56;4827278;28;20109;-88
2022/02/06 14:00:24;;;;;;;1.38;0.52;;;;;;;-145.06;0.00;60892.56;4828193;28;20105;-88
2022/02/06 14:03:03;;;;;;;0.80;0.50;;;;;;;-145.06;0.00;60892.56;4834328;28;20507;-87
2022/02/06 14:05:51;;;;;;;0.60;0.60;;;;;;;-145.06;0.00;60892.56;4828274;28;20041;-87
2022/02/06 14:08:34;;;;;;;0.60;0.50;;;;;;;-145.06;0.00;60892.56;4829841;28;20368;-88
2022/02/06 14:11:18;;;;;;;1.48;0.60;;;;;;;7.00;0.00;60892.56;4840158;28;20073;-87
2022/02/06 14:14:20;;;;;;;1.40;0.60;;;;;;;-145.06;0.00;60892.56;4824958;28;20803;-88
2022/02/06 14:17:00;;;;;;;0.88;0.50;;;;;;;-145.06;0.00;60892.56;4829202;28;20042;-88
2022/02/06 14:19:47;;;;;;;0.85;0.60;;;;;;;-145.06;0.00;60892.56;4831835;28;20033;-88
2022/02/06 14:22:35;;;;;;;2.08;0.50;;;;;;;-145.06;0.00;60892.56;4833566;28;20037;-88
2022/02/06 14:25:31;;;;;;;1.58;0.70;;;;;;;-145.06;0.00;60892.56;4830544;28;20029;-87
2022/02/06 14:28:20;;;;;;;0.73;0.57;;;;;;;-145.06;0.00;60892.56;4839903;28;20061;-88
2022/02/06 14:30:59;;;;;;;0.70;0.60;;;;;;;-145.06;0.00;60892.56;4835412;28;20484;-88
2022/02/06 14:33:40;;;;;;;2.00;0.63;;;;;;;-145.06;0.00;60892.56;4826647;28;20034;-88
2022/02/06 14:36:24;;;;;;;0.40;0.40;;;;;;;-145.06;0.00;60892.56;4829978;28;20037;-88
2022/02/06 14:39:04;;;;;;;1.75;0.50;;;;;;;-145.06;0.00;60892.56;4829131;28;20706;-87
2022/02/06 14:41:58;;;;;;;1.40;0.55;;;;;;;-145.06;0.00;60892.56;4828442;28;20372;-88
2022/02/06 14:44:38;;;;;;;0.70;0.40;;;;;;;-145.06;0.00;60892.56;4824556;28;20038;-87
2022/02/06 14:47:17;;;;;;;0.80;0.50;;;;;;;-145.06;0.00;60892.56;4832596;28;20045;-88
2022/02/06 14:49:56;;;;;;;0.68;0.50;;;;;;;-145.06;0.00;60892.56;4831599;28;20682;-89
2022/02/06 14:52:36;;;;;;;1.10;0.70;;;;;;;-145.06;0.00;60892.56;4844946;28;20034;-88
2022/02/06 14:55:16;;;;;;;;;;;;;;;-145.06;0.00;60892.56;4825781;28;20062;-88
2022/02/06 14:57:55;;;;;;;1.27;0.55;;;;;;;-145.06;0.00;60892.56;4835744;28;19964;-88
2022/02/06 15:00:36;;;;;;;0.73;0.57;;;;;;;-145.06;0.00;60892.56;4829545;28;20029;-88
2022/02/06 15:03:14;;;;;;;;;;;;;;;-145.06;0.00;60892.56;4829314;28;20042;-87
2022/02/06 15:05:53;;;;;;;0.80;0.60;;;;;;;-145.06;0.00;60892.56;4827954;28;19917;-87